Ultramar IV — XCUI6 — position and weather

sailwx.info

Track history (hours):
 
Tides and Currents Weather Stations Pressure Air Temp Water Temp Dewpoint Dewpoint Depression Visibility Wind Speed Wind Dir Waves Ship Positions

Ultramar IV

Last reported at 2018-Aug-21 00:41 UTC. Time now 2018-Aug-21 04:20 UTC.
Position N 20°31' W 086°57'.

Length 13 m; draft 9.9 m.

Type: Passenger vessel. MMSI: 345110012.

Date/timePositionNaut miles runAvg speedWind from/ knotsBaromVisibWave heightAir tempDewpointWater temp
2018-Aug-21 00:41N 20°31' W 086°57'0 0.0
2018-Aug-21 00:29N 20°31' W 086°57'0 0.0
2018-Aug-21 00:01N 20°31' W 086°57'0 0.0
2018-Aug-20 23:31N 20°31' W 086°57'0 0.0
2018-Aug-20 23:30N 20°31' W 086°57'1 1.4
2018-Aug-20 23:03N 20°31' W 086°57'0 0.9
2018-Aug-20 23:00N 20°31' W 086°57'1 1.1
2018-Aug-20 22:29N 20°31' W 086°57'1 1.4
2018-Aug-20 22:03N 20°31' W 086°57'0 0.2
2018-Aug-20 22:00N 20°31' W 086°57'0 0.0
2018-Aug-20 21:30N 20°31' W 086°57'0 0.0
2018-Aug-20 21:03N 20°31' W 086°57'0 0.3
2018-Aug-20 21:00N 20°31' W 086°57'3 6.2
2018-Aug-20 20:31N 20°29' W 086°59'0 0.3
2018-Aug-20 20:03N 20°29' W 086°59'0 0.1
2018-Aug-20 20:00N 20°29' W 086°59'4 0.5
2018-Aug-20 11:59N 20°32' W 087°01'4 4.8
2018-Aug-20 11:07N 20°29' W 086°59'0 2.3
2018-Aug-20 11:03N 20°29' W 086°59'0 0.3
2018-Aug-20 11:00N 20°29' W 086°59'2 4.9
2018-Aug-20 10:31N 20°31' W 086°57'0 0.9
2018-Aug-20 10:03N 20°31' W 086°57'0 0.0
2018-Aug-20 09:59N 20°31' W 086°57'0 0.0
2018-Aug-20 09:30N 20°31' W 086°57'0 0.0
2018-Aug-20 09:02N 20°31' W 086°57'0 0.0
2018-Aug-20 09:00N 20°31' W 086°57'0 0.0
2018-Aug-20 08:30N 20°31' W 086°57'0 0.0
2018-Aug-20 08:03N 20°31' W 086°57'0 0.0
2018-Aug-20 08:00N 20°31' W 086°57'0 0.0
2018-Aug-20 07:30N 20°31' W 086°57'0 0.0
2018-Aug-20 07:03N 20°31' W 086°57'0 0.0
2018-Aug-20 07:00N 20°31' W 086°57'0 0.0
2018-Aug-20 06:30N 20°31' W 086°57'0 0.0
2018-Aug-20 06:03N 20°31' W 086°57'0 0.0
2018-Aug-20 06:00N 20°31' W 086°57'0 0.0
2018-Aug-20 05:30N 20°31' W 086°57'0 0.0
2018-Aug-20 05:03N 20°31' W 086°57'0 0.0
2018-Aug-20 04:59N 20°31' W 086°57'0 0.0
2018-Aug-20 04:45N 20°31' W 086°57'0 0.0
2018-Aug-20 04:30N 20°31' W 086°57'0 0.0
2018-Aug-20 04:00N 20°31' W 086°57'0 0.0
2018-Aug-20 03:30N 20°31' W 086°57'0 0.0
2018-Aug-20 03:00N 20°31' W 086°57'0 0.0
2018-Aug-20 02:30N 20°31' W 086°57'0 0.0
2018-Aug-20 02:00N 20°31' W 086°57'0 0.0
2018-Aug-20 01:30N 20°31' W 086°57'0 0.0
2018-Aug-20 01:00N 20°31' W 086°57'0 0.0
2018-Aug-20 00:28N 20°31' W 086°57'0 0.0
2018-Aug-19 23:59N 20°31' W 086°57'0 0.0
2018-Aug-19 23:30N 20°31' W 086°57'0 0.0
2018-Aug-19 23:00N 20°31' W 086°57'0 0.0
2018-Aug-19 22:30N 20°31' W 086°57'0 0.0
2018-Aug-19 21:51N 20°31' W 086°57'0 0.0
2018-Aug-19 21:12N 20°31' W 086°57'0 0.0
2018-Aug-19 20:59N 20°31' W 086°57'0 0.0
2018-Aug-19 20:30N 20°31' W 086°57'0 0.0
2018-Aug-19 19:58N 20°31' W 086°57'0 0.0
2018-Aug-19 19:30N 20°31' W 086°57'0 0.0
2018-Aug-19 18:57N 20°31' W 086°57'0 0.0
2018-Aug-19 18:30N 20°31' W 086°57'0 0.0
2018-Aug-19 18:00N 20°31' W 086°57'0 0.0
2018-Aug-19 17:29N 20°31' W 086°57'0 0.0
2018-Aug-19 17:00N 20°31' W 086°57'0 0.0
2018-Aug-19 16:30N 20°31' W 086°57'0 0.0
2018-Aug-19 16:00N 20°31' W 086°57'0 0.0
2018-Aug-19 15:30N 20°31' W 086°57'0 0.0
2018-Aug-19 15:00N 20°31' W 086°57'0 0.0
2018-Aug-19 14:30N 20°31' W 086°57'0 0.0
2018-Aug-19 13:58N 20°31' W 086°57'0 0.0
2018-Aug-19 13:30N 20°31' W 086°57'0 0.0
2018-Aug-19 12:59N 20°31' W 086°57'0 0.0
2018-Aug-19 12:30N 20°31' W 086°57'0 0.0
2018-Aug-19 12:00N 20°31' W 086°57'0 0.0
2018-Aug-19 11:30N 20°31' W 086°57'0 0.0
2018-Aug-19 11:00N 20°31' W 086°57'0 0.0
2018-Aug-19 10:30N 20°31' W 086°57'0 0.0
2018-Aug-19 09:58N 20°31' W 086°57'0 0.0
2018-Aug-19 09:30N 20°31' W 086°57'0 0.0
2018-Aug-19 08:59N 20°31' W 086°57'0 0.0
2018-Aug-19 08:30N 20°31' W 086°57'0 0.0
2018-Aug-19 08:00N 20°31' W 086°57'0 0.0
2018-Aug-19 07:30N 20°31' W 086°57'0 0.0
2018-Aug-19 07:00N 20°31' W 086°57'0 0.0
2018-Aug-19 06:30N 20°31' W 086°57'0 0.0
2018-Aug-19 06:00N 20°31' W 086°57'0 0.0
2018-Aug-19 05:30N 20°31' W 086°57'0 0.0
2018-Aug-19 05:00N 20°31' W 086°57'0 0.0
2018-Aug-19 04:30N 20°31' W 086°57'0 0.0
2018-Aug-19 04:00N 20°31' W 086°57'0 0.0
2018-Aug-19 03:30N 20°31' W 086°57'0 0.0
2018-Aug-19 03:00N 20°31' W 086°57'0 0.0
2018-Aug-19 02:30N 20°31' W 086°57'0 0.0
2018-Aug-19 02:00N 20°31' W 086°57'0 0.0
2018-Aug-19 01:29N 20°31' W 086°57'0 0.0
2018-Aug-19 01:00N 20°31' W 086°57'0 0.0
2018-Aug-19 00:29N 20°31' W 086°57'0 0.0
2018-Aug-19 00:00N 20°31' W 086°57'0 0.0
2018-Aug-18 23:29N 20°31' W 086°57'0 0.1
2018-Aug-18 23:00N 20°31' W 086°57'3 4.0
2018-Aug-18 22:21N 20°29' W 086°59'5 0.6
2018-Aug-18 14:28N 20°33' W 087°02'5 8.1
2018-Aug-18 13:50N 20°29' W 086°59'0 0.7
2018-Aug-18 13:30N 20°29' W 086°59'1 2.4
2018-Aug-18 13:01N 20°30' W 086°58'2 3.1
2018-Aug-18 12:31N 20°31' W 086°57'0 0.0
2018-Aug-18 12:00N 20°31' W 086°57'0 0.0
2018-Aug-18 11:28N 20°31' W 086°57'0 0.0
2018-Aug-18 10:59N 20°31' W 086°57'0 0.0
2018-Aug-18 10:28N 20°31' W 086°57'0 0.0
2018-Aug-18 10:00N 20°31' W 086°57'0 0.0
2018-Aug-18 09:31N 20°31' W 086°57'0 0.0
2018-Aug-18 09:00N 20°31' W 086°57'0 0.0
2018-Aug-18 08:30N 20°31' W 086°57'0 0.0
2018-Aug-18 08:00N 20°31' W 086°57'0 0.0
2018-Aug-18 07:30N 20°31' W 086°57'0 0.0
2018-Aug-18 07:00N 20°31' W 086°57'0 0.0
2018-Aug-18 06:29N 20°31' W 086°57'0 0.0
2018-Aug-18 06:00N 20°31' W 086°57'0 0.0
2018-Aug-18 05:30N 20°31' W 086°57'0 0.0
2018-Aug-18 05:00N 20°31' W 086°57'0 0.0
2018-Aug-18 04:31N 20°31' W 086°57'0 0.0
2018-Aug-18 04:00N 20°31' W 086°57'0 0.0
2018-Aug-18 03:30N 20°31' W 086°57'0 0.0
2018-Aug-18 03:01N 20°31' W 086°57'0 0.0
2018-Aug-18 02:30N 20°31' W 086°57'0 0.0
2018-Aug-18 01:59N 20°31' W 086°57'0 0.0
2018-Aug-18 01:30N 20°31' W 086°57'0 0.0
2018-Aug-18 01:01N 20°31' W 086°57'0 0.0
2018-Aug-18 00:30N 20°31' W 086°57'0 0.0
2018-Aug-18 00:00N 20°31' W 086°57'0 0.1
2018-Aug-17 23:31N 20°31' W 086°57'2 4.9
2018-Aug-17 23:00N 20°29' W 086°59'1 1.8
2018-Aug-17 22:30N 20°30' W 086°59'4 2.0
2018-Aug-17 20:44N 20°33' W 086°60'314.0
2018-Aug-17 20:30N 20°31' W 086°57'4 7.1
2018-Aug-17 20:00N 20°33' W 087°00'1 0.7
2018-Aug-17 18:49N 20°33' W 086°59'3 5.3
2018-Aug-17 18:17N 20°31' W 086°57'4 1.5
2018-Aug-17 15:31N 20°33' W 087°01'117.4
2018-Aug-17 15:28N 20°32' W 087°01'4 5.9
2018-Aug-17 14:50N 20°29' W 086°59'0 0.9
2018-Aug-17 14:30N 20°29' W 086°59'3 2.0
2018-Aug-17 13:13N 20°31' W 086°57'0 0.0
2018-Aug-17 12:53N 20°31' W 086°57'0 0.0
2018-Aug-17 12:30N 20°31' W 086°57'0 0.0
2018-Aug-17 02:27N 20°31' W 086°57'0 0.5
2018-Aug-17 02:00N 20°31' W 086°57'0 0.4
2018-Aug-17 01:30N 20°31' W 086°57'0 0.0
2018-Aug-16 23:36N 20°31' W 086°57'0 0.6
2018-Aug-16 23:30N 20°31' W 086°57'1 2.8
2018-Aug-16 23:00N 20°30' W 086°58'2 3.4
2018-Aug-16 22:30N 20°31' W 086°59'1 0.5
2018-Aug-16 19:28N 20°33' W 086°59'4 4.9
2018-Aug-16 18:41N 20°29' W 086°59'315.2
2018-Aug-16 18:30N 20°31' W 086°60'1 0.4
2018-Aug-16 14:29N 20°32' W 087°01'4 8.6
2018-Aug-16 14:00N 20°29' W 086°59'0 0.6
2018-Aug-16 13:30N 20°29' W 086°59'0 0.7
2018-Aug-16 13:01N 20°29' W 086°59'4 3.1
2018-Aug-16 11:41N 20°32' W 087°01'317.7
2018-Aug-16 11:31N 20°30' W 086°60'1 2.6
2018-Aug-16 10:58N 20°29' W 086°59'2 4.3
2018-Aug-16 10:30N 20°30' W 086°58'1 1.5
2018-Aug-16 10:00N 20°31' W 086°57'0 0.0
2018-Aug-16 09:30N 20°31' W 086°57'0 0.0
2018-Aug-16 09:00N 20°31' W 086°57'0 0.0
2018-Aug-16 08:30N 20°31' W 086°57'0 0.0
2018-Aug-16 07:59N 20°31' W 086°57'0 0.0
2018-Aug-16 07:30N 20°31' W 086°57'0 0.0
2018-Aug-16 07:00N 20°31' W 086°57'0 0.0
2018-Aug-16 06:30N 20°31' W 086°57'0 0.0
2018-Aug-16 05:58N 20°31' W 086°57'0 0.0
2018-Aug-16 05:29N 20°31' W 086°57'0 0.0
2018-Aug-16 05:00N 20°31' W 086°57'0 0.0
2018-Aug-16 04:30N 20°31' W 086°57'0 0.0
2018-Aug-16 04:00N 20°31' W 086°57'0 0.0
2018-Aug-16 03:28N 20°31' W 086°57'0 0.0
2018-Aug-16 03:00N 20°31' W 086°57'0 0.0
2018-Aug-16 02:30N 20°31' W 086°57'0 0.1
2018-Aug-16 02:00N 20°31' W 086°57'0 0.0
2018-Aug-16 01:30N 20°31' W 086°57'3 5.1
2018-Aug-16 01:00N 20°29' W 086°59'4 1.6
2018-Aug-15 22:19N 20°32' W 087°01'413.8
2018-Aug-15 22:00N 20°29' W 086°59'0 0.7
2018-Aug-15 21:31N 20°29' W 086°59'4 0.8
2018-Aug-15 16:28N 20°32' W 087°01'4 5.2
2018-Aug-15 15:39N 20°29' W 086°59'0 2.2
2018-Aug-15 15:31N 20°29' W 086°59'0 0.0
2018-Aug-15 15:01N 20°29' W 086°59'5 3.6
2018-Aug-15 13:41N 20°33' W 087°01'317.8
2018-Aug-15 13:30N 20°30' W 086°59'1 2.7
2018-Aug-15 12:57N 20°29' W 086°59'0 0.5
2018-Aug-15 12:30N 20°29' W 086°59'0 0.9
2018-Aug-15 12:01N 20°29' W 086°59'2 4.5
2018-Aug-15 11:31N 20°31' W 086°57'0 0.0
2018-Aug-15 10:59N 20°31' W 086°57'0 0.0
2018-Aug-15 10:30N 20°31' W 086°57'0 0.0
2018-Aug-15 10:00N 20°31' W 086°57'0 0.0
2018-Aug-15 09:30N 20°31' W 086°57'0 0.0
2018-Aug-15 09:00N 20°31' W 086°57'0 0.0
2018-Aug-15 08:30N 20°31' W 086°57'0 0.0
2018-Aug-15 08:00N 20°31' W 086°57'0 0.0
2018-Aug-15 07:30N 20°31' W 086°57'0 0.0
2018-Aug-15 07:00N 20°31' W 086°57'0 0.0
2018-Aug-15 06:30N 20°31' W 086°57'0 0.0
2018-Aug-15 05:59N 20°31' W 086°57'0 0.0
2018-Aug-15 05:30N 20°31' W 086°57'0 0.0
2018-Aug-15 05:00N 20°31' W 086°57'0 0.0
2018-Aug-15 04:30N 20°31' W 086°57'0 0.0
2018-Aug-15 04:00N 20°31' W 086°57'0 0.0
2018-Aug-15 03:22N 20°31' W 086°57'0 0.0
2018-Aug-15 03:00N 20°31' W 086°57'0 0.0
2018-Aug-15 02:31N 20°31' W 086°57'0 0.0
2018-Aug-15 01:58N 20°31' W 086°57'0 0.0
2018-Aug-15 01:30N 20°31' W 086°57'0 0.0
2018-Aug-15 01:00N 20°31' W 086°57'0 0.0
2018-Aug-15 00:30N 20°31' W 086°57'0 0.0
2018-Aug-15 00:00N 20°31' W 086°57'0 0.0
2018-Aug-14 22:20N 20°31' W 086°57'0 0.0
2018-Aug-14 21:10N 20°31' W 086°57'1 8.6
2018-Aug-14 21:00N 20°30' W 086°58'1 2.6
2018-Aug-14 20:30N 20°29' W 086°59'5 1.7
2018-Aug-14 17:50N 20°33' W 087°00'411.4
2018-Aug-14 17:30N 20°31' W 086°57'3 1.4
2018-Aug-14 15:41N 20°32' W 086°59'313.9
2018-Aug-14 15:30N 20°31' W 086°57'4 7.7
2018-Aug-14 14:58N 20°33' W 087°01'1 0.4
2018-Aug-14 12:31N 20°32' W 087°01'018.2
2018-Aug-14 12:30N 20°32' W 087°01'4 5.5
2018-Aug-14 11:45N 20°29' W 086°59'0 0.8
2018-Aug-14 11:30N 20°29' W 086°59'3 5.0
2018-Aug-14 11:00N 20°31' W 086°57'0 0.0
2018-Aug-14 10:31N 20°31' W 086°57'0 0.0
2018-Aug-14 09:58N 20°31' W 086°57'0 0.0
2018-Aug-14 09:24N 20°31' W 086°57'0 0.0
2018-Aug-14 09:00N 20°31' W 086°57'0 0.0
2018-Aug-14 08:30N 20°31' W 086°57'0 0.0
2018-Aug-14 08:00N 20°31' W 086°57'0 0.0
2018-Aug-14 07:30N 20°31' W 086°57'0 0.0
2018-Aug-14 07:00N 20°31' W 086°57'0 0.0
2018-Aug-14 06:30N 20°31' W 086°57'0 0.0
2018-Aug-14 06:00N 20°31' W 086°57'0 0.0
2018-Aug-14 05:30N 20°31' W 086°57'0 0.0
2018-Aug-14 05:00N 20°31' W 086°57'0 0.0
2018-Aug-14 04:29N 20°31' W 086°57'0 0.0
2018-Aug-14 04:00N 20°31' W 086°57'0 0.0
2018-Aug-14 03:30N 20°31' W 086°57'0 0.0
2018-Aug-14 03:00N 20°31' W 086°57'0 0.0
2018-Aug-14 02:30N 20°31' W 086°57'0 0.0
2018-Aug-14 02:00N 20°31' W 086°57'0 0.0
2018-Aug-14 01:30N 20°31' W 086°57'0 0.0
2018-Aug-14 00:52N 20°31' W 086°57'0 0.0
2018-Aug-14 00:28N 20°31' W 086°57'0 0.0
2018-Aug-13 23:54N 20°31' W 086°57'0 0.9
2018-Aug-13 23:30N 20°31' W 086°57'0 0.1
2018-Aug-13 23:00N 20°31' W 086°57'0 0.5
2018-Aug-13 22:30N 20°31' W 086°57'0 0.1
2018-Aug-13 22:00N 20°31' W 086°57'0 0.0
2018-Aug-13 21:30N 20°31' W 086°57'1 2.5
2018-Aug-13 21:00N 20°30' W 086°58'1 1.6
2018-Aug-13 20:30N 20°30' W 086°59'2 0.6
2018-Aug-13 16:43N 20°32' W 086°59'211.8
2018-Aug-13 16:30N 20°31' W 086°57'4 1.1
2018-Aug-13 12:39N 20°32' W 087°01'318.9
2018-Aug-13 12:30N 20°30' W 086°60'2 2.4
2018-Aug-13 11:51N 20°29' W 086°59'0 0.8
2018-Aug-13 11:30N 20°29' W 086°59'2 4.6
2018-Aug-13 11:00N 20°31' W 086°57'0 0.8
2018-Aug-13 10:30N 20°31' W 086°57'0 0.0
2018-Aug-13 09:55N 20°31' W 086°57'0 0.0
2018-Aug-13 09:30N 20°31' W 086°57'0 0.0
2018-Aug-13 09:00N 20°31' W 086°57'0 0.0
2018-Aug-13 08:27N 20°31' W 086°57'0 0.0
2018-Aug-13 08:00N 20°31' W 086°57'0 0.0
2018-Aug-13 07:30N 20°31' W 086°57'0 0.0
2018-Aug-13 06:57N 20°31' W 086°57'0 0.0
2018-Aug-13 06:30N 20°31' W 086°57'0 0.0
2018-Aug-13 05:58N 20°31' W 086°57'0 0.0
2018-Aug-13 05:30N 20°31' W 086°57'0 0.0
2018-Aug-13 04:57N 20°31' W 086°57'0 0.0
2018-Aug-13 04:30N 20°31' W 086°57'0 0.0
2018-Aug-13 04:00N 20°31' W 086°57'0 0.0
2018-Aug-13 03:29N 20°31' W 086°57'1 1.2
2018-Aug-13 03:00N 20°31' W 086°57'0 0.0
2018-Aug-13 02:30N 20°31' W 086°57'0 0.0
2018-Aug-13 02:00N 20°31' W 086°57'0 0.8
2018-Aug-13 01:29N 20°31' W 086°57'2 1.4
2018-Aug-12 23:44N 20°33' W 086°59'3 9.5
2018-Aug-12 23:27N 20°31' W 086°57'0 0.7
2018-Aug-12 23:00N 20°31' W 086°57'0 0.5
2018-Aug-12 22:30N 20°31' W 086°57'0 0.2
2018-Aug-12 21:57N 20°31' W 086°57'0 0.0
2018-Aug-12 21:30N 20°31' W 086°57'0 0.0
2018-Aug-12 21:00N 20°31' W 086°57'1 1.2
2018-Aug-12 20:30N 20°31' W 086°57'0 0.0
2018-Aug-12 20:00N 20°31' W 086°57'1 1.1
2018-Aug-12 19:30N 20°31' W 086°57'4 7.7
2018-Aug-12 19:00N 20°33' W 087°00'1 0.9
2018-Aug-12 17:45N 20°33' W 086°59'311.8
2018-Aug-12 17:30N 20°31' W 086°57'4 7.2
2018-Aug-12 17:00N 20°33' W 087°00'1 0.7
2018-Aug-12 15:43N 20°33' W 086°59'310.0
2018-Aug-12 15:26N 20°31' W 086°57'4 2.2
2018-Aug-12 13:47N 20°33' W 087°00'412.7
2018-Aug-12 13:30N 20°31' W 086°57'0 0.1
2018-Aug-12 13:00N 20°31' W 086°57'0 0.0
2018-Aug-12 12:30N 20°31' W 086°57'0 0.0
2018-Aug-12 12:01N 20°31' W 086°57'0 0.0
2018-Aug-12 11:31N 20°31' W 086°57'0 0.0
2018-Aug-12 11:00N 20°31' W 086°57'0 0.0
2018-Aug-12 10:31N 20°31' W 086°57'0 0.0
2018-Aug-12 10:00N 20°31' W 086°57'0 0.0
2018-Aug-12 09:30N 20°31' W 086°57'0 0.0
2018-Aug-12 09:01N 20°31' W 086°57'0 0.0
2018-Aug-12 08:31N 20°31' W 086°57'0 0.0
2018-Aug-12 08:01N 20°31' W 086°57'0 0.0
2018-Aug-12 07:30N 20°31' W 086°57'0 0.0
2018-Aug-12 07:01N 20°31' W 086°57'0 0.0
2018-Aug-12 06:30N 20°31' W 086°57'0 0.0
2018-Aug-12 06:00N 20°31' W 086°57'0 0.0
2018-Aug-12 05:31N 20°31' W 086°57'0 0.0
2018-Aug-12 05:00N 20°31' W 086°57'0 0.0
2018-Aug-12 04:30N 20°31' W 086°57'0 0.0
2018-Aug-12 04:00N 20°31' W 086°57'0 0.0
2018-Aug-12 03:30N 20°31' W 086°57'0 0.0
2018-Aug-12 03:01N 20°31' W 086°57'0 0.0
2018-Aug-12 02:30N 20°31' W 086°57'0 0.0
2018-Aug-12 02:00N 20°31' W 086°57'0 0.0
2018-Aug-12 01:30N 20°31' W 086°57'0 0.0
2018-Aug-12 01:00N 20°31' W 086°57'0 0.0
2018-Aug-12 00:31N 20°31' W 086°57'0 0.0
2018-Aug-12 00:00N 20°31' W 086°57'0 0.1
2018-Aug-11 23:31N 20°31' W 086°57'0 0.2
2018-Aug-11 23:00N 20°31' W 086°57'0 0.3
2018-Aug-11 22:31N 20°31' W 086°57'1 2.0
2018-Aug-11 22:01N 20°30' W 086°58'2 3.6
2018-Aug-11 21:30N 20°31' W 086°60'2 0.6
2018-Aug-11 18:48N 20°32' W 087°00'310.8
2018-Aug-11 18:29N 20°31' W 086°57'4 7.4
2018-Aug-11 18:00N 20°33' W 087°00'1 1.0
2018-Aug-11 16:47N 20°32' W 086°59'2 7.1
2018-Aug-11 16:27N 20°31' W 086°57'3 1.1
2018-Aug-11 13:41N 20°31' W 087°00'3 5.4
2018-Aug-11 13:11N 20°29' W 086°59'0 0.7
2018-Aug-11 12:59N 20°29' W 086°59'0 0.7
2018-Aug-11 12:30N 20°29' W 086°59'0 0.0
2018-Aug-11 12:00N 20°29' W 086°59'0 0.0
2018-Aug-11 11:30N 20°29' W 086°59'2 4.6
2018-Aug-11 11:00N 20°31' W 086°57'0 0.1
2018-Aug-11 02:39N 20°31' W 086°57'  
Track history (hours):
 
Tides and Currents Weather Stations Pressure Air Temp Water Temp Dewpoint Dewpoint Depression Visibility Wind Speed Wind Dir Waves Ship Positions

Ultramar IV

Last reported at 2018-Aug-21 00:41 UTC. Time now 2018-Aug-21 04:20 UTC.
Position N 20°31' W 086°57'.

Length 13 m; draft 9.9 m.

Type: Passenger vessel. MMSI: 345110012.

Date/timePositionNaut miles runAvg speedWind from/ knotsBaromVisibWave heightAir tempDewpointWater temp
2018-Aug-21 00:41N 20°31' W 086°57'0 0.0
2018-Aug-21 00:29N 20°31' W 086°57'0 0.0
2018-Aug-21 00:01N 20°31' W 086°57'0 0.0
2018-Aug-20 23:31N 20°31' W 086°57'0 0.0
2018-Aug-20 23:30N 20°31' W 086°57'1 1.4
2018-Aug-20 23:03N 20°31' W 086°57'0 0.9
2018-Aug-20 23:00N 20°31' W 086°57'1 1.1
2018-Aug-20 22:29N 20°31' W 086°57'1 1.4
2018-Aug-20 22:03N 20°31' W 086°57'0 0.2
2018-Aug-20 22:00N 20°31' W 086°57'0 0.0
2018-Aug-20 21:30N 20°31' W 086°57'0 0.0
2018-Aug-20 21:03N 20°31' W 086°57'0 0.3
2018-Aug-20 21:00N 20°31' W 086°57'3 6.2
2018-Aug-20 20:31N 20°29' W 086°59'0 0.3
2018-Aug-20 20:03N 20°29' W 086°59'0 0.1
2018-Aug-20 20:00N 20°29' W 086°59'4 0.5
2018-Aug-20 11:59N 20°32' W 087°01'4 4.8
2018-Aug-20 11:07N 20°29' W 086°59'0 2.3
2018-Aug-20 11:03N 20°29' W 086°59'0 0.3
2018-Aug-20 11:00N 20°29' W 086°59'2 4.9
2018-Aug-20 10:31N 20°31' W 086°57'0 0.9
2018-Aug-20 10:03N 20°31' W 086°57'0 0.0
2018-Aug-20 09:59N 20°31' W 086°57'0 0.0
2018-Aug-20 09:30N 20°31' W 086°57'0 0.0
2018-Aug-20 09:02N 20°31' W 086°57'0 0.0
2018-Aug-20 09:00N 20°31' W 086°57'0 0.0
2018-Aug-20 08:30N 20°31' W 086°57'0 0.0
2018-Aug-20 08:03N 20°31' W 086°57'0 0.0
2018-Aug-20 08:00N 20°31' W 086°57'0 0.0
2018-Aug-20 07:30N 20°31' W 086°57'0 0.0
2018-Aug-20 07:03N 20°31' W 086°57'0 0.0
2018-Aug-20 07:00N 20°31' W 086°57'0 0.0
2018-Aug-20 06:30N 20°31' W 086°57'0 0.0
2018-Aug-20 06:03N 20°31' W 086°57'0 0.0
2018-Aug-20 06:00N 20°31' W 086°57'0 0.0
2018-Aug-20 05:30N 20°31' W 086°57'0 0.0
2018-Aug-20 05:03N 20°31' W 086°57'0 0.0
2018-Aug-20 04:59N 20°31' W 086°57'0 0.0
2018-Aug-20 04:45N 20°31' W 086°57'0 0.0
2018-Aug-20 04:30N 20°31' W 086°57'0 0.0
2018-Aug-20 04:00N 20°31' W 086°57'0 0.0
2018-Aug-20 03:30N 20°31' W 086°57'0 0.0
2018-Aug-20 03:00N 20°31' W 086°57'0 0.0
2018-Aug-20 02:30N 20°31' W 086°57'0 0.0
2018-Aug-20 02:00N 20°31' W 086°57'0 0.0
2018-Aug-20 01:30N 20°31' W 086°57'0 0.0
2018-Aug-20 01:00N 20°31' W 086°57'0 0.0
2018-Aug-20 00:28N 20°31' W 086°57'0 0.0
2018-Aug-19 23:59N 20°31' W 086°57'0 0.0
2018-Aug-19 23:30N 20°31' W 086°57'0 0.0
2018-Aug-19 23:00N 20°31' W 086°57'0 0.0
2018-Aug-19 22:30N 20°31' W 086°57'0 0.0
2018-Aug-19 21:51N 20°31' W 086°57'0 0.0
2018-Aug-19 21:12N 20°31' W 086°57'0 0.0
2018-Aug-19 20:59N 20°31' W 086°57'0 0.0
2018-Aug-19 20:30N 20°31' W 086°57'0 0.0
2018-Aug-19 19:58N 20°31' W 086°57'0 0.0
2018-Aug-19 19:30N 20°31' W 086°57'0 0.0
2018-Aug-19 18:57N 20°31' W 086°57'0 0.0
2018-Aug-19 18:30N 20°31' W 086°57'0 0.0
2018-Aug-19 18:00N 20°31' W 086°57'0 0.0
2018-Aug-19 17:29N 20°31' W 086°57'0 0.0
2018-Aug-19 17:00N 20°31' W 086°57'0 0.0
2018-Aug-19 16:30N 20°31' W 086°57'0 0.0
2018-Aug-19 16:00N 20°31' W 086°57'0 0.0
2018-Aug-19 15:30N 20°31' W 086°57'0 0.0
2018-Aug-19 15:00N 20°31' W 086°57'0 0.0
2018-Aug-19 14:30N 20°31' W 086°57'0 0.0
2018-Aug-19 13:58N 20°31' W 086°57'0 0.0
2018-Aug-19 13:30N 20°31' W 086°57'0 0.0
2018-Aug-19 12:59N 20°31' W 086°57'0 0.0
2018-Aug-19 12:30N 20°31' W 086°57'0 0.0
2018-Aug-19 12:00N 20°31' W 086°57'0 0.0
2018-Aug-19 11:30N 20°31' W 086°57'0 0.0
2018-Aug-19 11:00N 20°31' W 086°57'0 0.0
2018-Aug-19 10:30N 20°31' W 086°57'0 0.0
2018-Aug-19 09:58N 20°31' W 086°57'0 0.0
2018-Aug-19 09:30N 20°31' W 086°57'0 0.0
2018-Aug-19 08:59N 20°31' W 086°57'0 0.0
2018-Aug-19 08:30N 20°31' W 086°57'0 0.0
2018-Aug-19 08:00N 20°31' W 086°57'0 0.0
2018-Aug-19 07:30N 20°31' W 086°57'0 0.0
2018-Aug-19 07:00N 20°31' W 086°57'0 0.0
2018-Aug-19 06:30N 20°31' W 086°57'0 0.0
2018-Aug-19 06:00N 20°31' W 086°57'0 0.0
2018-Aug-19 05:30N 20°31' W 086°57'0 0.0
2018-Aug-19 05:00N 20°31' W 086°57'0 0.0
2018-Aug-19 04:30N 20°31' W 086°57'0 0.0
2018-Aug-19 04:00N 20°31' W 086°57'0 0.0
2018-Aug-19 03:30N 20°31' W 086°57'0 0.0
2018-Aug-19 03:00N 20°31' W 086°57'0 0.0
2018-Aug-19 02:30N 20°31' W 086°57'0 0.0
2018-Aug-19 02:00N 20°31' W 086°57'0 0.0
2018-Aug-19 01:29N 20°31' W 086°57'0 0.0
2018-Aug-19 01:00N 20°31' W 086°57'0 0.0
2018-Aug-19 00:29N 20°31' W 086°57'0 0.0
2018-Aug-19 00:00N 20°31' W 086°57'0 0.0
2018-Aug-18 23:29N 20°31' W 086°57'0 0.1
2018-Aug-18 23:00N 20°31' W 086°57'3 4.0
2018-Aug-18 22:21N 20°29' W 086°59'5 0.6
2018-Aug-18 14:28N 20°33' W 087°02'5 8.1
2018-Aug-18 13:50N 20°29' W 086°59'0 0.7
2018-Aug-18 13:30N 20°29' W 086°59'1 2.4
2018-Aug-18 13:01N 20°30' W 086°58'2 3.1
2018-Aug-18 12:31N 20°31' W 086°57'0 0.0
2018-Aug-18 12:00N 20°31' W 086°57'0 0.0
2018-Aug-18 11:28N 20°31' W 086°57'0 0.0
2018-Aug-18 10:59N 20°31' W 086°57'0 0.0
2018-Aug-18 10:28N 20°31' W 086°57'0 0.0
2018-Aug-18 10:00N 20°31' W 086°57'0 0.0
2018-Aug-18 09:31N 20°31' W 086°57'0 0.0
2018-Aug-18 09:00N 20°31' W 086°57'0 0.0
2018-Aug-18 08:30N 20°31' W 086°57'0 0.0
2018-Aug-18 08:00N 20°31' W 086°57'0 0.0
2018-Aug-18 07:30N 20°31' W 086°57'0 0.0
2018-Aug-18 07:00N 20°31' W 086°57'0 0.0
2018-Aug-18 06:29N 20°31' W 086°57'0 0.0
2018-Aug-18 06:00N 20°31' W 086°57'0 0.0
2018-Aug-18 05:30N 20°31' W 086°57'0 0.0
2018-Aug-18 05:00N 20°31' W 086°57'0 0.0
2018-Aug-18 04:31N 20°31' W 086°57'0 0.0
2018-Aug-18 04:00N 20°31' W 086°57'0 0.0
2018-Aug-18 03:30N 20°31' W 086°57'0 0.0
2018-Aug-18 03:01N 20°31' W 086°57'0 0.0
2018-Aug-18 02:30N 20°31' W 086°57'0 0.0
2018-Aug-18 01:59N 20°31' W 086°57'0 0.0
2018-Aug-18 01:30N 20°31' W 086°57'0 0.0
2018-Aug-18 01:01N 20°31' W 086°57'0 0.0
2018-Aug-18 00:30N 20°31' W 086°57'0 0.0
2018-Aug-18 00:00N 20°31' W 086°57'0 0.1
2018-Aug-17 23:31N 20°31' W 086°57'2 4.9
2018-Aug-17 23:00N 20°29' W 086°59'1 1.8
2018-Aug-17 22:30N 20°30' W 086°59'4 2.0
2018-Aug-17 20:44N 20°33' W 086°60'314.0
2018-Aug-17 20:30N 20°31' W 086°57'4 7.1
2018-Aug-17 20:00N 20°33' W 087°00'1 0.7
2018-Aug-17 18:49N 20°33' W 086°59'3 5.3
2018-Aug-17 18:17N 20°31' W 086°57'4 1.5
2018-Aug-17 15:31N 20°33' W 087°01'117.4
2018-Aug-17 15:28N 20°32' W 087°01'4 5.9
2018-Aug-17 14:50N 20°29' W 086°59'0 0.9
2018-Aug-17 14:30N 20°29' W 086°59'3 2.0
2018-Aug-17 13:13N 20°31' W 086°57'0 0.0
2018-Aug-17 12:53N 20°31' W 086°57'0 0.0
2018-Aug-17 12:30N 20°31' W 086°57'0 0.0
2018-Aug-17 02:27N 20°31' W 086°57'0 0.5
2018-Aug-17 02:00N 20°31' W 086°57'0 0.4
2018-Aug-17 01:30N 20°31' W 086°57'0 0.0
2018-Aug-16 23:36N 20°31' W 086°57'0 0.6
2018-Aug-16 23:30N 20°31' W 086°57'1 2.8
2018-Aug-16 23:00N 20°30' W 086°58'2 3.4
2018-Aug-16 22:30N 20°31' W 086°59'1 0.5
2018-Aug-16 19:28N 20°33' W 086°59'4 4.9
2018-Aug-16 18:41N 20°29' W 086°59'315.2
2018-Aug-16 18:30N 20°31' W 086°60'1 0.4
2018-Aug-16 14:29N 20°32' W 087°01'4 8.6
2018-Aug-16 14:00N 20°29' W 086°59'0 0.6
2018-Aug-16 13:30N 20°29' W 086°59'0 0.7
2018-Aug-16 13:01N 20°29' W 086°59'4 3.1
2018-Aug-16 11:41N 20°32' W 087°01'317.7
2018-Aug-16 11:31N 20°30' W 086°60'1 2.6
2018-Aug-16 10:58N 20°29' W 086°59'2 4.3
2018-Aug-16 10:30N 20°30' W 086°58'1 1.5
2018-Aug-16 10:00N 20°31' W 086°57'0 0.0
2018-Aug-16 09:30N 20°31' W 086°57'0 0.0
2018-Aug-16 09:00N 20°31' W 086°57'0 0.0
2018-Aug-16 08:30N 20°31' W 086°57'0 0.0
2018-Aug-16 07:59N 20°31' W 086°57'0 0.0
2018-Aug-16 07:30N 20°31' W 086°57'0 0.0
2018-Aug-16 07:00N 20°31' W 086°57'0 0.0
2018-Aug-16 06:30N 20°31' W 086°57'0 0.0
2018-Aug-16 05:58N 20°31' W 086°57'0 0.0
2018-Aug-16 05:29N 20°31' W 086°57'0 0.0
2018-Aug-16 05:00N 20°31' W 086°57'0 0.0
2018-Aug-16 04:30N 20°31' W 086°57'0 0.0
2018-Aug-16 04:00N 20°31' W 086°57'0 0.0
2018-Aug-16 03:28N 20°31' W 086°57'0 0.0
2018-Aug-16 03:00N 20°31' W 086°57'0 0.0
2018-Aug-16 02:30N 20°31' W 086°57'0 0.1
2018-Aug-16 02:00N 20°31' W 086°57'0 0.0
2018-Aug-16 01:30N 20°31' W 086°57'3 5.1
2018-Aug-16 01:00N 20°29' W 086°59'4 1.6
2018-Aug-15 22:19N 20°32' W 087°01'413.8
2018-Aug-15 22:00N 20°29' W 086°59'0 0.7
2018-Aug-15 21:31N 20°29' W 086°59'4 0.8
2018-Aug-15 16:28N 20°32' W 087°01'4 5.2
2018-Aug-15 15:39N 20°29' W 086°59'0 2.2
2018-Aug-15 15:31N 20°29' W 086°59'0 0.0
2018-Aug-15 15:01N 20°29' W 086°59'5 3.6
2018-Aug-15 13:41N 20°33' W 087°01'317.8
2018-Aug-15 13:30N 20°30' W 086°59'1 2.7
2018-Aug-15 12:57N 20°29' W 086°59'0 0.5
2018-Aug-15 12:30N 20°29' W 086°59'0 0.9
2018-Aug-15 12:01N 20°29' W 086°59'2 4.5
2018-Aug-15 11:31N 20°31' W 086°57'0 0.0
2018-Aug-15 10:59N 20°31' W 086°57'0 0.0
2018-Aug-15 10:30N 20°31' W 086°57'0 0.0
2018-Aug-15 10:00N 20°31' W 086°57'0 0.0
2018-Aug-15 09:30N 20°31' W 086°57'0 0.0
2018-Aug-15 09:00N 20°31' W 086°57'0 0.0
2018-Aug-15 08:30N 20°31' W 086°57'0 0.0
2018-Aug-15 08:00N 20°31' W 086°57'0 0.0
2018-Aug-15 07:30N 20°31' W 086°57'0 0.0
2018-Aug-15 07:00N 20°31' W 086°57'0 0.0
2018-Aug-15 06:30N 20°31' W 086°57'0 0.0
2018-Aug-15 05:59N 20°31' W 086°57'0 0.0
2018-Aug-15 05:30N 20°31' W 086°57'0 0.0
2018-Aug-15 05:00N 20°31' W 086°57'0 0.0
2018-Aug-15 04:30N 20°31' W 086°57'0 0.0
2018-Aug-15 04:00N 20°31' W 086°57'0 0.0
2018-Aug-15 03:22N 20°31' W 086°57'0 0.0
2018-Aug-15 03:00N 20°31' W 086°57'0 0.0
2018-Aug-15 02:31N 20°31' W 086°57'0 0.0
2018-Aug-15 01:58N 20°31' W 086°57'0 0.0
2018-Aug-15 01:30N 20°31' W 086°57'0 0.0
2018-Aug-15 01:00N 20°31' W 086°57'0 0.0
2018-Aug-15 00:30N 20°31' W 086°57'0 0.0
2018-Aug-15 00:00N 20°31' W 086°57'0 0.0
2018-Aug-14 22:20N 20°31' W 086°57'0 0.0
2018-Aug-14 21:10N 20°31' W 086°57'1 8.6
2018-Aug-14 21:00N 20°30' W 086°58'1 2.6
2018-Aug-14 20:30N 20°29' W 086°59'5 1.7
2018-Aug-14 17:50N 20°33' W 087°00'411.4
2018-Aug-14 17:30N 20°31' W 086°57'3 1.4
2018-Aug-14 15:41N 20°32' W 086°59'313.9
2018-Aug-14 15:30N 20°31' W 086°57'4 7.7
2018-Aug-14 14:58N 20°33' W 087°01'1 0.4
2018-Aug-14 12:31N 20°32' W 087°01'018.2
2018-Aug-14 12:30N 20°32' W 087°01'4 5.5
2018-Aug-14 11:45N 20°29' W 086°59'0 0.8
2018-Aug-14 11:30N 20°29' W 086°59'3 5.0
2018-Aug-14 11:00N 20°31' W 086°57'0 0.0
2018-Aug-14 10:31N 20°31' W 086°57'0 0.0
2018-Aug-14 09:58N 20°31' W 086°57'0 0.0
2018-Aug-14 09:24N 20°31' W 086°57'0 0.0
2018-Aug-14 09:00N 20°31' W 086°57'0 0.0
2018-Aug-14 08:30N 20°31' W 086°57'0 0.0
2018-Aug-14 08:00N 20°31' W 086°57'0 0.0
2018-Aug-14 07:30N 20°31' W 086°57'0 0.0
2018-Aug-14 07:00N 20°31' W 086°57'0 0.0
2018-Aug-14 06:30N 20°31' W 086°57'0 0.0
2018-Aug-14 06:00N 20°31' W 086°57'0 0.0
2018-Aug-14 05:30N 20°31' W 086°57'0 0.0
2018-Aug-14 05:00N 20°31' W 086°57'0 0.0
2018-Aug-14 04:29N 20°31' W 086°57'0 0.0
2018-Aug-14 04:00N 20°31' W 086°57'0 0.0
2018-Aug-14 03:30N 20°31' W 086°57'0 0.0
2018-Aug-14 03:00N 20°31' W 086°57'0 0.0
2018-Aug-14 02:30N 20°31' W 086°57'0 0.0
2018-Aug-14 02:00N 20°31' W 086°57'0 0.0
2018-Aug-14 01:30N 20°31' W 086°57'0 0.0
2018-Aug-14 00:52N 20°31' W 086°57'0 0.0
2018-Aug-14 00:28N 20°31' W 086°57'0 0.0
2018-Aug-13 23:54N 20°31' W 086°57'0 0.9
2018-Aug-13 23:30N 20°31' W 086°57'0 0.1
2018-Aug-13 23:00N 20°31' W 086°57'0 0.5
2018-Aug-13 22:30N 20°31' W 086°57'0 0.1
2018-Aug-13 22:00N 20°31' W 086°57'0 0.0
2018-Aug-13 21:30N 20°31' W 086°57'1 2.5
2018-Aug-13 21:00N 20°30' W 086°58'1 1.6
2018-Aug-13 20:30N 20°30' W 086°59'2 0.6
2018-Aug-13 16:43N 20°32' W 086°59'211.8
2018-Aug-13 16:30N 20°31' W 086°57'4 1.1
2018-Aug-13 12:39N 20°32' W 087°01'318.9
2018-Aug-13 12:30N 20°30' W 086°60'2 2.4
2018-Aug-13 11:51N 20°29' W 086°59'0 0.8
2018-Aug-13 11:30N 20°29' W 086°59'2 4.6
2018-Aug-13 11:00N 20°31' W 086°57'0 0.8
2018-Aug-13 10:30N 20°31' W 086°57'0 0.0
2018-Aug-13 09:55N 20°31' W 086°57'0 0.0
2018-Aug-13 09:30N 20°31' W 086°57'0 0.0
2018-Aug-13 09:00N 20°31' W 086°57'0 0.0
2018-Aug-13 08:27N 20°31' W 086°57'0 0.0
2018-Aug-13 08:00N 20°31' W 086°57'0 0.0
2018-Aug-13 07:30N 20°31' W 086°57'0 0.0
2018-Aug-13 06:57N 20°31' W 086°57'0 0.0
2018-Aug-13 06:30N 20°31' W 086°57'0 0.0
2018-Aug-13 05:58N 20°31' W 086°57'0 0.0
2018-Aug-13 05:30N 20°31' W 086°57'0 0.0
2018-Aug-13 04:57N 20°31' W 086°57'0 0.0
2018-Aug-13 04:30N 20°31' W 086°57'0 0.0
2018-Aug-13 04:00N 20°31' W 086°57'0 0.0
2018-Aug-13 03:29N 20°31' W 086°57'1 1.2
2018-Aug-13 03:00N 20°31' W 086°57'0 0.0
2018-Aug-13 02:30N 20°31' W 086°57'0 0.0
2018-Aug-13 02:00N 20°31' W 086°57'0 0.8
2018-Aug-13 01:29N 20°31' W 086°57'2 1.4
2018-Aug-12 23:44N 20°33' W 086°59'3 9.5
2018-Aug-12 23:27N 20°31' W 086°57'0 0.7
2018-Aug-12 23:00N 20°31' W 086°57'0 0.5
2018-Aug-12 22:30N 20°31' W 086°57'0 0.2
2018-Aug-12 21:57N 20°31' W 086°57'0 0.0
2018-Aug-12 21:30N 20°31' W 086°57'0 0.0
2018-Aug-12 21:00N 20°31' W 086°57'1 1.2
2018-Aug-12 20:30N 20°31' W 086°57'0 0.0
2018-Aug-12 20:00N 20°31' W 086°57'1 1.1
2018-Aug-12 19:30N 20°31' W 086°57'4 7.7
2018-Aug-12 19:00N 20°33' W 087°00'1 0.9
2018-Aug-12 17:45N 20°33' W 086°59'311.8
2018-Aug-12 17:30N 20°31' W 086°57'4 7.2
2018-Aug-12 17:00N 20°33' W 087°00'1 0.7
2018-Aug-12 15:43N 20°33' W 086°59'310.0
2018-Aug-12 15:26N 20°31' W 086°57'4 2.2
2018-Aug-12 13:47N 20°33' W 087°00'412.7
2018-Aug-12 13:30N 20°31' W 086°57'0 0.1
2018-Aug-12 13:00N 20°31' W 086°57'0 0.0
2018-Aug-12 12:30N 20°31' W 086°57'0 0.0
2018-Aug-12 12:01N 20°31' W 086°57'0 0.0
2018-Aug-12 11:31N 20°31' W 086°57'0 0.0
2018-Aug-12 11:00N 20°31' W 086°57'0 0.0
2018-Aug-12 10:31N 20°31' W 086°57'0 0.0
2018-Aug-12 10:00N 20°31' W 086°57'0 0.0
2018-Aug-12 09:30N 20°31' W 086°57'0 0.0
2018-Aug-12 09:01N 20°31' W 086°57'0 0.0
2018-Aug-12 08:31N 20°31' W 086°57'0 0.0
2018-Aug-12 08:01N 20°31' W 086°57'0 0.0
2018-Aug-12 07:30N 20°31' W 086°57'0 0.0
2018-Aug-12 07:01N 20°31' W 086°57'0 0.0
2018-Aug-12 06:30N 20°31' W 086°57'0 0.0
2018-Aug-12 06:00N 20°31' W 086°57'0 0.0
2018-Aug-12 05:31N 20°31' W 086°57'0 0.0
2018-Aug-12 05:00N 20°31' W 086°57'0 0.0
2018-Aug-12 04:30N 20°31' W 086°57'0 0.0
2018-Aug-12 04:00N 20°31' W 086°57'0 0.0
2018-Aug-12 03:30N 20°31' W 086°57'0 0.0
2018-Aug-12 03:01N 20°31' W 086°57'0 0.0
2018-Aug-12 02:30N 20°31' W 086°57'0 0.0
2018-Aug-12 02:00N 20°31' W 086°57'0 0.0
2018-Aug-12 01:30N 20°31' W 086°57'0 0.0
2018-Aug-12 01:00N 20°31' W 086°57'0 0.0
2018-Aug-12 00:31N 20°31' W 086°57'0 0.0
2018-Aug-12 00:00N 20°31' W 086°57'0 0.1
2018-Aug-11 23:31N 20°31' W 086°57'0 0.2
2018-Aug-11 23:00N 20°31' W 086°57'0 0.3
2018-Aug-11 22:31N 20°31' W 086°57'1 2.0
2018-Aug-11 22:01N 20°30' W 086°58'2 3.6
2018-Aug-11 21:30N 20°31' W 086°60'2 0.6
2018-Aug-11 18:48N 20°32' W 087°00'310.8
2018-Aug-11 18:29N 20°31' W 086°57'4 7.4
2018-Aug-11 18:00N 20°33' W 087°00'1 1.0
2018-Aug-11 16:47N 20°32' W 086°59'2 7.1
2018-Aug-11 16:27N 20°31' W 086°57'3 1.1
2018-Aug-11 13:41N 20°31' W 087°00'3 5.4
2018-Aug-11 13:11N 20°29' W 086°59'0 0.7
2018-Aug-11 12:59N 20°29' W 086°59'0 0.7
2018-Aug-11 12:30N 20°29' W 086°59'0 0.0
2018-Aug-11 12:00N 20°29' W 086°59'0 0.0
2018-Aug-11 11:30N 20°29' W 086°59'2 4.6
2018-Aug-11 11:00N 20°31' W 086°57'0 0.1
2018-Aug-11 02:39N 20°31' W 086°57'  

Dump ship's entire track history